sensor_id;sensor_type;location;lat;lon;timestamp;temperature;humidity
5806;DHT22;2929;50.810;8.342;2022-11-21T00:00:23;5.10;99.90
5806;DHT22;2929;50.810;8.342;2022-11-21T00:02:51;5.20;99.90
5806;DHT22;2929;50.810;8.342;2022-11-21T00:05:18;5.10;99.90
5806;DHT22;2929;50.810;8.342;2022-11-21T00:07:46;5.20;99.90
5806;DHT22;2929;50.810;8.342;2022-11-21T00:10:14;5.20;99.90
5806;DHT22;2929;50.810;8.342;2022-11-21T00:12:42;5.20;99.90
5806;DHT22;2929;50.810;8.342;2022-11-21T00:15:10;5.20;99.90
5806;DHT22;2929;50.810;8.342;2022-11-21T00:17:37;5.10;99.90
5806;DHT22;2929;50.810;8.342;2022-11-21T00:20:04;5.10;99.90
5806;DHT22;2929;50.810;8.342;2022-11-21T00:22:32;5.10;99.90
5806;DHT22;2929;50.810;8.342;2022-11-21T00:25:00;5.10;99.90
5806;DHT22;2929;50.810;8.342;2022-11-21T00:27:27;5.10;99.90
5806;DHT22;2929;50.810;8.342;2022-11-21T00:29:54;5.10;99.90
5806;DHT22;2929;50.810;8.342;2022-11-21T00:32:21;5.00;99.90
5806;DHT22;2929;50.810;8.342;2022-11-21T00:34:48;5.10;99.90
5806;DHT22;2929;50.810;8.342;2022-11-21T00:37:15;5.10;99.90
5806;DHT22;2929;50.810;8.342;2022-11-21T00:39:42;5.10;99.90
5806;DHT22;2929;50.810;8.342;2022-11-21T00:42:11;5.10;99.90
5806;DHT22;2929;50.810;8.342;2022-11-21T00:44:38;5.00;99.90
5806;DHT22;2929;50.810;8.342;2022-11-21T00:47:05;5.10;99.90
5806;DHT22;2929;50.810;8.342;2022-11-21T00:49:32;5.10;99.90
5806;DHT22;2929;50.810;8.342;2022-11-21T00:51:59;5.00;99.90
5806;DHT22;2929;50.810;8.342;2022-11-21T00:54:26;5.00;99.90
5806;DHT22;2929;50.810;8.342;2022-11-21T00:56:53;5.00;99.90
5806;DHT22;2929;50.810;8.342;2022-11-21T00:59:22;5.00;99.90
5806;DHT22;2929;50.810;8.342;2022-11-21T01:01:49;4.90;99.90
5806;DHT22;2929;50.810;8.342;2022-11-21T01:04:16;5.00;99.90
5806;DHT22;2929;50.810;8.342;2022-11-21T01:06:43;4.90;99.90
5806;DHT22;2929;50.810;8.342;2022-11-21T01:09:10;4.90;99.90
5806;DHT22;2929;50.810;8.342;2022-11-21T01:11:37;4.90;99.90
5806;DHT22;2929;50.810;8.342;2022-11-21T01:14:04;4.80;99.90
5806;DHT22;2929;50.810;8.342;2022-11-21T01:16:33;4.80;99.90
5806;DHT22;2929;50.810;8.342;2022-11-21T01:19:00;4.80;99.90
5806;DHT22;2929;50.810;8.342;2022-11-21T01:21:29;4.70;99.90
5806;DHT22;2929;50.810;8.342;2022-11-21T01:23:58;4.70;99.90
5806;DHT22;2929;50.810;8.342;2022-11-21T01:26:28;4.70;99.90
5806;DHT22;2929;50.810;8.342;2022-11-21T01:28:56;4.60;99.90
5806;DHT22;2929;50.810;8.342;2022-11-21T01:31:25;4.60;99.90
5806;DHT22;2929;50.810;8.342;2022-11-21T01:33:56;4.50;99.90
5806;DHT22;2929;50.810;8.342;2022-11-21T01:36:25;4.50;99.90
5806;DHT22;2929;50.810;8.342;2022-11-21T01:38:54;4.50;99.90
5806;DHT22;2929;50.810;8.342;2022-11-21T01:41:24;4.40;99.90
5806;DHT22;2929;50.810;8.342;2022-11-21T01:43:51;4.40;99.90
5806;DHT22;2929;50.810;8.342;2022-11-21T01:46:19;4.30;99.90
5806;DHT22;2929;50.810;8.342;2022-11-21T01:48:51;4.20;99.90
5806;DHT22;2929;50.810;8.342;2022-11-21T01:51:26;4.20;99.90
5806;DHT22;2929;50.810;8.342;2022-11-21T01:53:58;4.10;99.90
5806;DHT22;2929;50.810;8.342;2022-11-21T01:56:29;4.10;99.90
5806;DHT22;2929;50.810;8.342;2022-11-21T01:58:58;4.10;99.90
5806;DHT22;2929;50.810;8.342;2022-11-21T02:01:26;4.10;99.90
5806;DHT22;2929;50.810;8.342;2022-11-21T02:03:56;4.00;99.90
5806;DHT22;2929;50.810;8.342;2022-11-21T02:06:26;4.10;99.90
5806;DHT22;2929;50.810;8.342;2022-11-21T02:08:53;4.00;99.90
5806;DHT22;2929;50.810;8.342;2022-11-21T02:11:27;3.90;99.90
5806;DHT22;2929;50.810;8.342;2022-11-21T02:13:56;4.00;99.90
5806;DHT22;2929;50.810;8.342;2022-11-21T02:16:23;4.00;99.90
5806;DHT22;2929;50.810;8.342;2022-11-21T02:18:51;3.90;99.90
5806;DHT22;2929;50.810;8.342;2022-11-21T02:21:24;3.90;99.90
5806;DHT22;2929;50.810;8.342;2022-11-21T02:24:01;3.90;99.90
5806;DHT22;2929;50.810;8.342;2022-11-21T02:26:31;3.90;99.90
5806;DHT22;2929;50.810;8.342;2022-11-21T02:28:58;3.90;99.90
5806;DHT22;2929;50.810;8.342;2022-11-21T02:31:25;3.90;99.90
5806;DHT22;2929;50.810;8.342;2022-11-21T02:33:52;4.00;99.90
5806;DHT22;2929;50.810;8.342;2022-11-21T02:36:39;4.00;99.90
5806;DHT22;2929;50.810;8.342;2022-11-21T02:39:09;4.00;99.90
5806;DHT22;2929;50.810;8.342;2022-11-21T02:41:42;4.10;99.90
5806;DHT22;2929;50.810;8.342;2022-11-21T02:44:17;4.10;99.90
5806;DHT22;2929;50.810;8.342;2022-11-21T02:46:47;4.10;99.90
5806;DHT22;2929;50.810;8.342;2022-11-21T02:49:17;4.20;99.90
5806;DHT22;2929;50.810;8.342;2022-11-21T02:51:47;4.10;99.90
5806;DHT22;2929;50.810;8.342;2022-11-21T02:54:14;4.10;99.90
5806;DHT22;2929;50.810;8.342;2022-11-21T02:56:42;4.10;99.90
5806;DHT22;2929;50.810;8.342;2022-11-21T02:59:09;4.20;99.90
5806;DHT22;2929;50.810;8.342;2022-11-21T03:01:36;4.20;99.90
5806;DHT22;2929;50.810;8.342;2022-11-21T03:04:04;4.20;99.90
5806;DHT22;2929;50.810;8.342;2022-11-21T03:06:31;4.20;99.90
5806;DHT22;2929;50.810;8.342;2022-11-21T03:08:58;4.30;99.90
5806;DHT22;2929;50.810;8.342;2022-11-21T03:11:25;4.50;99.90
5806;DHT22;2929;50.810;8.342;2022-11-21T03:13:53;4.50;99.90
5806;DHT22;2929;50.810;8.342;2022-11-21T03:16:20;4.50;99.90
5806;DHT22;2929;50.810;8.342;2022-11-21T03:18:47;4.60;99.90
5806;DHT22;2929;50.810;8.342;2022-11-21T03:21:14;4.50;99.90
5806;DHT22;2929;50.810;8.342;2022-11-21T03:23:41;4.50;99.90
5806;DHT22;2929;50.810;8.342;2022-11-21T03:26:08;4.60;99.90
5806;DHT22;2929;50.810;8.342;2022-11-21T03:28:35;4.60;99.90
5806;DHT22;2929;50.810;8.342;2022-11-21T03:31:04;4.60;99.90
5806;DHT22;2929;50.810;8.342;2022-11-21T03:33:31;4.60;99.90
5806;DHT22;2929;50.810;8.342;2022-11-21T03:35:58;4.60;99.90
5806;DHT22;2929;50.810;8.342;2022-11-21T03:38:25;4.50;99.90
5806;DHT22;2929;50.810;8.342;2022-11-21T03:40:52;4.60;99.90
5806;DHT22;2929;50.810;8.342;2022-11-21T03:43:19;4.50;99.90
5806;DHT22;2929;50.810;8.342;2022-11-21T03:45:46;4.50;99.90
5806;DHT22;2929;50.810;8.342;2022-11-21T03:48:14;4.60;99.90
5806;DHT22;2929;50.810;8.342;2022-11-21T03:50:42;4.60;99.90
5806;DHT22;2929;50.810;8.342;2022-11-21T03:53:09;4.60;99.90
5806;DHT22;2929;50.810;8.342;2022-11-21T03:55:36;4.60;99.90
5806;DHT22;2929;50.810;8.342;2022-11-21T03:58:03;4.60;99.90
5806;DHT22;2929;50.810;8.342;2022-11-21T04:00:30;4.60;99.90
5806;DHT22;2929;50.810;8.342;2022-11-21T04:02:57;4.60;99.90
5806;DHT22;2929;50.810;8.342;2022-11-21T04:05:26;4.60;99.90
5806;DHT22;2929;50.810;8.342;2022-11-21T04:07:53;4.60;99.90
5806;DHT22;2929;50.810;8.342;2022-11-21T04:10:20;4.60;99.90
5806;DHT22;2929;50.810;8.342;2022-11-21T04:12:47;4.60;99.90
5806;DHT22;2929;50.810;8.342;2022-11-21T04:15:14;4.60;99.90
5806;DHT22;2929;50.810;8.342;2022-11-21T04:17:41;4.50;99.90
5806;DHT22;2929;50.810;8.342;2022-11-21T04:20:09;4.60;99.90
5806;DHT22;2929;50.810;8.342;2022-11-21T04:22:37;4.50;99.90
5806;DHT22;2929;50.810;8.342;2022-11-21T04:25:05;4.60;99.90
5806;DHT22;2929;50.810;8.342;2022-11-21T04:27:33;4.50;99.90
5806;DHT22;2929;50.810;8.342;2022-11-21T04:30:00;4.50;99.90
5806;DHT22;2929;50.810;8.342;2022-11-21T04:32:27;4.50;99.90
5806;DHT22;2929;50.810;8.342;2022-11-21T04:34:54;4.50;99.90
5806;DHT22;2929;50.810;8.342;2022-11-21T04:37:21;4.50;99.90
5806;DHT22;2929;50.810;8.342;2022-11-21T04:39:49;4.60;99.90
5806;DHT22;2929;50.810;8.342;2022-11-21T04:42:16;4.60;99.90
5806;DHT22;2929;50.810;8.342;2022-11-21T04:44:43;4.50;99.90
5806;DHT22;2929;50.810;8.342;2022-11-21T04:47:10;4.60;99.90
5806;DHT22;2929;50.810;8.342;2022-11-21T04:49:37;4.60;99.90
5806;DHT22;2929;50.810;8.342;2022-11-21T04:52:04;4.60;99.90
5806;DHT22;2929;50.810;8.342;2022-11-21T04:54:31;4.60;99.90
5806;DHT22;2929;50.810;8.342;2022-11-21T04:57:00;4.50;99.90
5806;DHT22;2929;50.810;8.342;2022-11-21T04:59:27;4.60;99.90
5806;DHT22;2929;50.810;8.342;2022-11-21T05:01:54;4.60;99.90
5806;DHT22;2929;50.810;8.342;2022-11-21T05:04:21;4.50;99.90
5806;DHT22;2929;50.810;8.342;2022-11-21T05:06:48;4.50;99.90
5806;DHT22;2929;50.810;8.342;2022-11-21T05:09:15;4.50;99.90
5806;DHT22;2929;50.810;8.342;2022-11-21T05:11:42;4.50;99.90
5806;DHT22;2929;50.810;8.342;2022-11-21T05:14:28;4.50;99.90
5806;DHT22;2929;50.810;8.342;2022-11-21T05:16:55;4.40;99.90
5806;DHT22;2929;50.810;8.342;2022-11-21T05:19:22;4.50;99.90
5806;DHT22;2929;50.810;8.342;2022-11-21T05:21:49;4.50;99.90
5806;DHT22;2929;50.810;8.342;2022-11-21T05:24:16;4.40;99.90
5806;DHT22;2929;50.810;8.342;2022-11-21T05:26:43;4.40;99.90
5806;DHT22;2929;50.810;8.342;2022-11-21T05:29:11;4.50;99.90
5806;DHT22;2929;50.810;8.342;2022-11-21T05:31:40;4.40;99.90
5806;DHT22;2929;50.810;8.342;2022-11-21T05:34:07;4.40;99.90
5806;DHT22;2929;50.810;8.342;2022-11-21T05:36:34;4.40;99.90
5806;DHT22;2929;50.810;8.342;2022-11-21T05:39:01;4.40;99.90
5806;DHT22;2929;50.810;8.342;2022-11-21T05:41:28;4.40;99.90
5806;DHT22;2929;50.810;8.342;2022-11-21T05:43:55;4.40;99.90
5806;DHT22;2929;50.810;8.342;2022-11-21T05:46:23;4.40;99.90
5806;DHT22;2929;50.810;8.342;2022-11-21T05:48:53;4.30;99.90
5806;DHT22;2929;50.810;8.342;2022-11-21T05:51:21;4.30;99.90
5806;DHT22;2929;50.810;8.342;2022-11-21T05:53:48;4.30;99.90
5806;DHT22;2929;50.810;8.342;2022-11-21T05:56:16;4.30;99.90
5806;DHT22;2929;50.810;8.342;2022-11-21T05:58:44;4.40;99.90
5806;DHT22;2929;50.810;8.342;2022-11-21T06:01:12;4.40;99.90
5806;DHT22;2929;50.810;8.342;2022-11-21T06:03:41;4.40;99.90
5806;DHT22;2929;50.810;8.342;2022-11-21T06:06:09;4.40;99.90
5806;DHT22;2929;50.810;8.342;2022-11-21T06:08:38;4.30;99.90
5806;DHT22;2929;50.810;8.342;2022-11-21T06:11:07;4.30;99.90
5806;DHT22;2929;50.810;8.342;2022-11-21T06:13:34;4.20;99.90
5806;DHT22;2929;50.810;8.342;2022-11-21T06:16:04;4.20;99.90
5806;DHT22;2929;50.810;8.342;2022-11-21T06:18:33;4.40;99.90
5806;DHT22;2929;50.810;8.342;2022-11-21T06:21:01;4.30;99.90
5806;DHT22;2929;50.810;8.342;2022-11-21T06:23:29;4.30;99.90
5806;DHT22;2929;50.810;8.342;2022-11-21T06:25:57;4.30;99.90
5806;DHT22;2929;50.810;8.342;2022-11-21T06:28:25;4.20;99.90
5806;DHT22;2929;50.810;8.342;2022-11-21T06:30:52;4.20;99.90
5806;DHT22;2929;50.810;8.342;2022-11-21T06:33:19;4.20;99.90
5806;DHT22;2929;50.810;8.342;2022-11-21T06:35:46;4.20;99.90
5806;DHT22;2929;50.810;8.342;2022-11-21T06:38:13;4.20;99.90
5806;DHT22;2929;50.810;8.342;2022-11-21T06:40:44;4.20;99.90
5806;DHT22;2929;50.810;8.342;2022-11-21T06:43:12;4.20;99.90
5806;DHT22;2929;50.810;8.342;2022-11-21T06:45:39;4.20;99.90
5806;DHT22;2929;50.810;8.342;2022-11-21T06:48:06;4.20;99.90
5806;DHT22;2929;50.810;8.342;2022-11-21T06:50:33;4.20;99.90
5806;DHT22;2929;50.810;8.342;2022-11-21T06:53:00;4.20;99.90
5806;DHT22;2929;50.810;8.342;2022-11-21T06:55:27;4.20;99.90
5806;DHT22;2929;50.810;8.342;2022-11-21T06:57:57;4.20;99.90
5806;DHT22;2929;50.810;8.342;2022-11-21T07:00:25;4.20;99.90
5806;DHT22;2929;50.810;8.342;2022-11-21T07:02:52;4.20;99.90
5806;DHT22;2929;50.810;8.342;2022-11-21T07:05:20;4.20;99.90
5806;DHT22;2929;50.810;8.342;2022-11-21T07:07:47;4.20;99.90
5806;DHT22;2929;50.810;8.342;2022-11-21T07:10:15;4.20;99.90
5806;DHT22;2929;50.810;8.342;2022-11-21T07:12:42;4.30;99.90
5806;DHT22;2929;50.810;8.342;2022-11-21T07:15:28;4.30;99.90
5806;DHT22;2929;50.810;8.342;2022-11-21T07:17:57;4.30;99.90
5806;DHT22;2929;50.810;8.342;2022-11-21T07:20:24;4.40;99.90
5806;DHT22;2929;50.810;8.342;2022-11-21T07:22:53;4.40;99.90
5806;DHT22;2929;50.810;8.342;2022-11-21T07:25:20;4.40;99.90
5806;DHT22;2929;50.810;8.342;2022-11-21T07:27:47;4.40;99.90
5806;DHT22;2929;50.810;8.342;2022-11-21T07:30:14;4.40;99.90
5806;DHT22;2929;50.810;8.342;2022-11-21T07:32:43;4.40;99.90
5806;DHT22;2929;50.810;8.342;2022-11-21T07:35:10;4.40;99.90
5806;DHT22;2929;50.810;8.342;2022-11-21T07:37:37;4.40;99.90
5806;DHT22;2929;50.810;8.342;2022-11-21T07:40:06;4.50;99.90
5806;DHT22;2929;50.810;8.342;2022-11-21T07:42:33;4.50;99.90
5806;DHT22;2929;50.810;8.342;2022-11-21T07:45:00;4.40;99.90
5806;DHT22;2929;50.810;8.342;2022-11-21T07:47:27;4.40;99.90
5806;DHT22;2929;50.810;8.342;2022-11-21T07:49:56;4.50;99.90
5806;DHT22;2929;50.810;8.342;2022-11-21T07:52:23;4.60;99.90
5806;DHT22;2929;50.810;8.342;2022-11-21T07:54:51;4.50;99.90
5806;DHT22;2929;50.810;8.342;2022-11-21T07:57:18;4.50;99.90
5806;DHT22;2929;50.810;8.342;2022-11-21T07:59:45;4.50;99.90
5806;DHT22;2929;50.810;8.342;2022-11-21T08:02:17;4.50;99.90
5806;DHT22;2929;50.810;8.342;2022-11-21T08:04:45;4.50;99.90
5806;DHT22;2929;50.810;8.342;2022-11-21T08:07:13;4.60;99.90
5806;DHT22;2929;50.810;8.342;2022-11-21T08:09:41;4.60;99.90
5806;DHT22;2929;50.810;8.342;2022-11-21T08:12:08;4.60;99.90
5806;DHT22;2929;50.810;8.342;2022-11-21T08:14:36;4.60;99.90
5806;DHT22;2929;50.810;8.342;2022-11-21T08:17:04;4.60;99.90
5806;DHT22;2929;50.810;8.342;2022-11-21T08:19:31;4.60;99.90
5806;DHT22;2929;50.810;8.342;2022-11-21T08:21:59;4.60;99.90
5806;DHT22;2929;50.810;8.342;2022-11-21T08:24:27;4.60;99.90
5806;DHT22;2929;50.810;8.342;2022-11-21T08:26:54;4.60;99.90
5806;DHT22;2929;50.810;8.342;2022-11-21T08:29:22;4.50;99.90
5806;DHT22;2929;50.810;8.342;2022-11-21T08:31:49;4.60;99.90
5806;DHT22;2929;50.810;8.342;2022-11-21T08:34:16;4.50;99.90
5806;DHT22;2929;50.810;8.342;2022-11-21T08:36:43;4.60;99.90
5806;DHT22;2929;50.810;8.342;2022-11-21T08:39:10;4.60;99.90
5806;DHT22;2929;50.810;8.342;2022-11-21T08:41:38;4.50;99.90
5806;DHT22;2929;50.810;8.342;2022-11-21T08:44:23;4.50;99.90
5806;DHT22;2929;50.810;8.342;2022-11-21T08:46:50;4.50;99.90
5806;DHT22;2929;50.810;8.342;2022-11-21T08:49:17;4.50;99.90
5806;DHT22;2929;50.810;8.342;2022-11-21T08:51:45;4.60;99.90
5806;DHT22;2929;50.810;8.342;2022-11-21T08:54:14;4.50;99.90
5806;DHT22;2929;50.810;8.342;2022-11-21T08:56:42;4.50;99.90
5806;DHT22;2929;50.810;8.342;2022-11-21T08:59:09;4.50;99.90
5806;DHT22;2929;50.810;8.342;2022-11-21T09:01:37;4.50;99.90
5806;DHT22;2929;50.810;8.342;2022-11-21T09:04:04;4.50;99.90
5806;DHT22;2929;50.810;8.342;2022-11-21T09:06:32;4.50;99.90
5806;DHT22;2929;50.810;8.342;2022-11-21T09:08:59;4.50;99.90
5806;DHT22;2929;50.810;8.342;2022-11-21T09:11:27;4.50;99.90
5806;DHT22;2929;50.810;8.342;2022-11-21T09:13:55;4.60;99.90
5806;DHT22;2929;50.810;8.342;2022-11-21T09:16:42;4.70;99.90
5806;DHT22;2929;50.810;8.342;2022-11-21T09:19:27;4.70;99.90
5806;DHT22;2929;50.810;8.342;2022-11-21T09:21:54;4.80;99.90
5806;DHT22;2929;50.810;8.342;2022-11-21T09:24:21;4.90;99.90
5806;DHT22;2929;50.810;8.342;2022-11-21T09:26:48;5.00;99.90
5806;DHT22;2929;50.810;8.342;2022-11-21T09:29:17;5.00;99.90
5806;DHT22;2929;50.810;8.342;2022-11-21T09:31:44;5.00;99.90
5806;DHT22;2929;50.810;8.342;2022-11-21T09:34:11;5.00;99.90
5806;DHT22;2929;50.810;8.342;2022-11-21T09:36:38;5.00;99.90
5806;DHT22;2929;50.810;8.342;2022-11-21T09:39:06;5.00;99.90
5806;DHT22;2929;50.810;8.342;2022-11-21T09:41:38;5.00;99.90
5806;DHT22;2929;50.810;8.342;2022-11-21T09:44:33;5.00;99.90
5806;DHT22;2929;50.810;8.342;2022-11-21T09:47:16;5.00;99.90
5806;DHT22;2929;50.810;8.342;2022-11-21T09:49:47;4.90;99.90
5806;DHT22;2929;50.810;8.342;2022-11-21T09:52:17;5.00;99.90
5806;DHT22;2929;50.810;8.342;2022-11-21T09:54:48;4.90;99.90
5806;DHT22;2929;50.810;8.342;2022-11-21T09:57:20;5.00;99.90
5806;DHT22;2929;50.810;8.342;2022-11-21T09:59:50;5.00;99.90
5806;DHT22;2929;50.810;8.342;2022-11-21T10:02:20;5.10;99.90
5806;DHT22;2929;50.810;8.342;2022-11-21T10:04:50;5.20;99.90
5806;DHT22;2929;50.810;8.342;2022-11-21T10:07:21;5.30;99.90
5806;DHT22;2929;50.810;8.342;2022-11-21T10:10:11;5.40;99.90
5806;DHT22;2929;50.810;8.342;2022-11-21T10:12:50;5.50;99.90
5806;DHT22;2929;50.810;8.342;2022-11-21T10:15:31;5.50;99.90
5806;DHT22;2929;50.810;8.342;2022-11-21T10:18:23;5.50;99.90
5806;DHT22;2929;50.810;8.342;2022-11-21T10:21:00;5.50;99.90
5806;DHT22;2929;50.810;8.342;2022-11-21T10:23:38;5.50;99.90
5806;DHT22;2929;50.810;8.342;2022-11-21T10:26:14;5.50;99.90
5806;DHT22;2929;50.810;8.342;2022-11-21T10:28:48;5.50;99.90
5806;DHT22;2929;50.810;8.342;2022-11-21T10:31:18;5.60;99.90
5806;DHT22;2929;50.810;8.342;2022-11-21T10:33:46;5.70;99.90
5806;DHT22;2929;50.810;8.342;2022-11-21T10:36:19;5.90;99.90
5806;DHT22;2929;50.810;8.342;2022-11-21T10:38:49;6.00;99.90
5806;DHT22;2929;50.810;8.342;2022-11-21T10:41:22;6.10;99.90
5806;DHT22;2929;50.810;8.342;2022-11-21T10:43:55;6.30;99.90
5806;DHT22;2929;50.810;8.342;2022-11-21T10:46:54;6.30;99.90
5806;DHT22;2929;50.810;8.342;2022-11-21T10:49:23;6.20;99.90
5806;DHT22;2929;50.810;8.342;2022-11-21T10:51:51;6.10;99.90
5806;DHT22;2929;50.810;8.342;2022-11-21T10:54:23;6.00;99.90
5806;DHT22;2929;50.810;8.342;2022-11-21T10:57:04;5.90;99.90
5806;DHT22;2929;50.810;8.342;2022-11-21T10:59:32;5.80;99.90
5806;DHT22;2929;50.810;8.342;2022-11-21T11:02:09;5.80;99.90
5806;DHT22;2929;50.810;8.342;2022-11-21T11:04:47;5.70;99.90
5806;DHT22;2929;50.810;8.342;2022-11-21T11:07:22;5.70;99.90
5806;DHT22;2929;50.810;8.342;2022-11-21T11:09:50;5.70;99.90
5806;DHT22;2929;50.810;8.342;2022-11-21T11:12:25;5.70;99.90
5806;DHT22;2929;50.810;8.342;2022-11-21T11:15:22;5.70;99.90
5806;DHT22;2929;50.810;8.342;2022-11-21T11:17:54;5.70;99.90
5806;DHT22;2929;50.810;8.342;2022-11-21T11:20:31;5.60;99.90
5806;DHT22;2929;50.810;8.342;2022-11-21T11:22:59;5.60;99.90
5806;DHT22;2929;50.810;8.342;2022-11-21T11:25:26;5.70;99.90
5806;DHT22;2929;50.810;8.342;2022-11-21T11:27:53;5.70;99.90
5806;DHT22;2929;50.810;8.342;2022-11-21T11:30:20;5.70;99.90
5806;DHT22;2929;50.810;8.342;2022-11-21T11:32:47;5.80;99.90
5806;DHT22;2929;50.810;8.342;2022-11-21T11:35:21;5.80;99.90
5806;DHT22;2929;50.810;8.342;2022-11-21T11:37:57;5.90;99.90
5806;DHT22;2929;50.810;8.342;2022-11-21T11:40:29;5.90;99.90
5806;DHT22;2929;50.810;8.342;2022-11-21T11:43:07;6.00;99.90
5806;DHT22;2929;50.810;8.342;2022-11-21T11:49:19;6.30;99.90
5806;DHT22;2929;50.810;8.342;2022-11-21T11:51:54;6.40;99.90
5806;DHT22;2929;50.810;8.342;2022-11-21T11:54:25;6.50;99.90
5806;DHT22;2929;50.810;8.342;2022-11-21T11:56:54;6.40;99.90
5806;DHT22;2929;50.810;8.342;2022-11-21T11:59:25;6.40;99.90
5806;DHT22;2929;50.810;8.342;2022-11-21T12:01:58;6.30;99.90
5806;DHT22;2929;50.810;8.342;2022-11-21T12:04:28;6.20;99.90
5806;DHT22;2929;50.810;8.342;2022-11-21T12:07:03;6.10;99.90
5806;DHT22;2929;50.810;8.342;2022-11-21T12:09:40;6.10;99.90
5806;DHT22;2929;50.810;8.342;2022-11-21T12:12:17;6.00;99.90
5806;DHT22;2929;50.810;8.342;2022-11-21T12:14:56;6.00;99.90
5806;DHT22;2929;50.810;8.342;2022-11-21T12:17:48;5.90;99.90
5806;DHT22;2929;50.810;8.342;2022-11-21T12:20:21;5.90;99.90
5806;DHT22;2929;50.810;8.342;2022-11-21T12:22:52;5.80;99.90
5806;DHT22;2929;50.810;8.342;2022-11-21T12:25:26;5.80;99.90
5806;DHT22;2929;50.810;8.342;2022-11-21T12:27:55;5.80;99.90
5806;DHT22;2929;50.810;8.342;2022-11-21T12:30:44;5.80;99.90
5806;DHT22;2929;50.810;8.342;2022-11-21T12:33:19;5.80;99.90
5806;DHT22;2929;50.810;8.342;2022-11-21T12:35:58;5.80;99.90
5806;DHT22;2929;50.810;8.342;2022-11-21T12:38:43;5.70;99.90
5806;DHT22;2929;50.810;8.342;2022-11-21T12:41:22;5.70;99.90
5806;DHT22;2929;50.810;8.342;2022-11-21T12:44:19;5.80;99.90
5806;DHT22;2929;50.810;8.342;2022-11-21T12:46:56;5.80;99.90
5806;DHT22;2929;50.810;8.342;2022-11-21T12:49:32;5.70;99.90
5806;DHT22;2929;50.810;8.342;2022-11-21T12:52:21;5.70;99.90
5806;DHT22;2929;50.810;8.342;2022-11-21T12:55:16;5.70;99.90
5806;DHT22;2929;50.810;8.342;2022-11-21T12:57:57;5.70;99.90
5806;DHT22;2929;50.810;8.342;2022-11-21T13:00:31;5.70;99.90
5806;DHT22;2929;50.810;8.342;2022-11-21T13:03:31;5.60;99.90
5806;DHT22;2929;50.810;8.342;2022-11-21T13:06:01;5.60;99.90
5806;DHT22;2929;50.810;8.342;2022-11-21T13:08:33;5.60;99.90
5806;DHT22;2929;50.810;8.342;2022-11-21T13:11:08;5.70;99.90
5806;DHT22;2929;50.810;8.342;2022-11-21T13:14:00;5.70;99.90
5806;DHT22;2929;50.810;8.342;2022-11-21T13:16:30;5.70;99.90
5806;DHT22;2929;50.810;8.342;2022-11-21T13:19:19;5.70;99.90
5806;DHT22;2929;50.810;8.342;2022-11-21T13:21:48;5.80;99.90
5806;DHT22;2929;50.810;8.342;2022-11-21T13:24:55;5.70;99.90
5806;DHT22;2929;50.810;8.342;2022-11-21T13:27:29;5.70;99.90
5806;DHT22;2929;50.810;8.342;2022-11-21T13:30:25;5.70;99.90
5806;DHT22;2929;50.810;8.342;2022-11-21T13:32:53;5.60;99.90
5806;DHT22;2929;50.810;8.342;2022-11-21T13:35:56;5.60;99.90
5806;DHT22;2929;50.810;8.342;2022-11-21T13:38:23;5.60;99.90
5806;DHT22;2929;50.810;8.342;2022-11-21T13:40:50;5.60;99.90
5806;DHT22;2929;50.810;8.342;2022-11-21T13:43:37;5.60;99.90
5806;DHT22;2929;50.810;8.342;2022-11-21T13:46:04;5.60;99.90
5806;DHT22;2929;50.810;8.342;2022-11-21T13:48:56;5.60;99.90
5806;DHT22;2929;50.810;8.342;2022-11-21T13:51:51;5.60;99.90
5806;DHT22;2929;50.810;8.342;2022-11-21T13:54:55;5.60;99.90
5806;DHT22;2929;50.810;8.342;2022-11-21T13:57:45;5.60;99.90
5806;DHT22;2929;50.810;8.342;2022-11-21T14:00:42;5.60;99.90
5806;DHT22;2929;50.810;8.342;2022-11-21T14:03:56;5.60;99.90
5806;DHT22;2929;50.810;8.342;2022-11-21T14:06:35;5.60;99.90
5806;DHT22;2929;50.810;8.342;2022-11-21T14:09:20;5.50;99.90
5806;DHT22;2929;50.810;8.342;2022-11-21T14:11:50;5.50;99.90
5806;DHT22;2929;50.810;8.342;2022-11-21T14:14:26;5.50;99.90
5806;DHT22;2929;50.810;8.342;2022-11-21T14:17:04;5.50;99.90
5806;DHT22;2929;50.810;8.342;2022-11-21T14:19:35;5.50;99.90
5806;DHT22;2929;50.810;8.342;2022-11-21T14:22:02;5.50;99.90
5806;DHT22;2929;50.810;8.342;2022-11-21T14:24:29;5.50;99.90
5806;DHT22;2929;50.810;8.342;2022-11-21T14:26:57;5.50;99.90
5806;DHT22;2929;50.810;8.342;2022-11-21T14:29:27;5.60;99.90
5806;DHT22;2929;50.810;8.342;2022-11-21T14:31:54;5.70;99.90
5806;DHT22;2929;50.810;8.342;2022-11-21T14:34:27;5.70;99.90
5806;DHT22;2929;50.810;8.342;2022-11-21T14:36:57;5.60;99.90
5806;DHT22;2929;50.810;8.342;2022-11-21T14:39:28;5.60;99.90
5806;DHT22;2929;50.810;8.342;2022-11-21T14:41:58;5.60;99.90
5806;DHT22;2929;50.810;8.342;2022-11-21T14:44:26;5.60;99.90
5806;DHT22;2929;50.810;8.342;2022-11-21T14:47:04;5.60;99.90
5806;DHT22;2929;50.810;8.342;2022-11-21T14:49:34;5.60;99.90
5806;DHT22;2929;50.810;8.342;2022-11-21T14:52:16;5.50;99.90
5806;DHT22;2929;50.810;8.342;2022-11-21T14:54:49;5.40;99.90
5806;DHT22;2929;50.810;8.342;2022-11-21T14:57:21;5.50;99.90
5806;DHT22;2929;50.810;8.342;2022-11-21T14:59:49;5.40;99.90
5806;DHT22;2929;50.810;8.342;2022-11-21T15:02:18;5.30;99.90
5806;DHT22;2929;50.810;8.342;2022-11-21T15:04:48;5.30;99.90
5806;DHT22;2929;50.810;8.342;2022-11-21T15:07:19;5.20;99.90
5806;DHT22;2929;50.810;8.342;2022-11-21T15:09:46;5.10;99.90
5806;DHT22;2929;50.810;8.342;2022-11-21T15:12:20;5.10;99.90
5806;DHT22;2929;50.810;8.342;2022-11-21T15:14:51;5.00;99.90
5806;DHT22;2929;50.810;8.342;2022-11-21T15:17:21;4.90;99.90
5806;DHT22;2929;50.810;8.342;2022-11-21T15:20:05;4.80;99.90
5806;DHT22;2929;50.810;8.342;2022-11-21T15:22:36;4.70;99.90
5806;DHT22;2929;50.810;8.342;2022-11-21T15:25:06;4.70;99.90
5806;DHT22;2929;50.810;8.342;2022-11-21T15:27:34;4.60;99.90
5806;DHT22;2929;50.810;8.342;2022-11-21T15:30:23;4.50;99.90
5806;DHT22;2929;50.810;8.342;2022-11-21T15:33:02;4.30;99.90
5806;DHT22;2929;50.810;8.342;2022-11-21T15:35:44;4.20;99.90
5806;DHT22;2929;50.810;8.342;2022-11-21T15:38:16;4.20;99.90
5806;DHT22;2929;50.810;8.342;2022-11-21T15:43:47;4.00;99.90
5806;DHT22;2929;50.810;8.342;2022-11-21T15:46:17;3.90;99.90
5806;DHT22;2929;50.810;8.342;2022-11-21T15:48:45;3.70;99.90
5806;DHT22;2929;50.810;8.342;2022-11-21T15:51:14;3.60;99.90
5806;DHT22;2929;50.810;8.342;2022-11-21T15:53:41;3.50;99.90
5806;DHT22;2929;50.810;8.342;2022-11-21T15:56:11;3.50;99.90
5806;DHT22;2929;50.810;8.342;2022-11-21T15:58:39;3.40;99.90
5806;DHT22;2929;50.810;8.342;2022-11-21T16:01:14;3.30;99.90
5806;DHT22;2929;50.810;8.342;2022-11-21T16:03:42;3.30;99.90
5806;DHT22;2929;50.810;8.342;2022-11-21T16:06:10;3.20;99.90
5806;DHT22;2929;50.810;8.342;2022-11-21T16:08:39;3.20;99.90
5806;DHT22;2929;50.810;8.342;2022-11-21T16:11:09;3.10;99.90
5806;DHT22;2929;50.810;8.342;2022-11-21T16:13:37;3.10;99.90
5806;DHT22;2929;50.810;8.342;2022-11-21T16:16:04;3.00;99.90
5806;DHT22;2929;50.810;8.342;2022-11-21T16:18:31;3.00;99.90
5806;DHT22;2929;50.810;8.342;2022-11-21T16:21:06;2.90;99.90
5806;DHT22;2929;50.810;8.342;2022-11-21T16:23:33;2.90;99.90
5806;DHT22;2929;50.810;8.342;2022-11-21T16:26:02;2.90;99.90
5806;DHT22;2929;50.810;8.342;2022-11-21T16:28:30;2.90;99.90
5806;DHT22;2929;50.810;8.342;2022-11-21T16:30:57;2.80;99.90
5806;DHT22;2929;50.810;8.342;2022-11-21T16:33:25;2.80;99.90
5806;DHT22;2929;50.810;8.342;2022-11-21T16:35:52;2.70;99.90
5806;DHT22;2929;50.810;8.342;2022-11-21T16:38:22;2.70;99.90
5806;DHT22;2929;50.810;8.342;2022-11-21T16:40:53;2.70;99.90
5806;DHT22;2929;50.810;8.342;2022-11-21T16:43:22;2.70;99.90
5806;DHT22;2929;50.810;8.342;2022-11-21T16:45:50;2.70;99.90
5806;DHT22;2929;50.810;8.342;2022-11-21T16:48:18;2.60;99.90